sensor_id;sensor_type;location;lat;lon;timestamp;temperature;humidity
27896;DHT22;15241;48.374;10.876;2023-05-29T00:00:12;15.90;99.90
27896;DHT22;15241;48.374;10.876;2023-05-29T00:05:12;15.90;99.90
27896;DHT22;15241;48.374;10.876;2023-05-29T00:10:12;15.80;99.90
27896;DHT22;15241;48.374;10.876;2023-05-29T00:15:11;15.60;99.90
27896;DHT22;15241;48.374;10.876;2023-05-29T00:20:12;15.50;99.90
27896;DHT22;15241;48.374;10.876;2023-05-29T00:25:11;15.40;99.90
27896;DHT22;15241;48.374;10.876;2023-05-29T00:30:12;15.40;99.90
27896;DHT22;15241;48.374;10.876;2023-05-29T00:35:11;15.30;99.90
27896;DHT22;15241;48.374;10.876;2023-05-29T00:40:11;15.20;99.90
27896;DHT22;15241;48.374;10.876;2023-05-29T00:50:20;15.10;99.90
27896;DHT22;15241;48.374;10.876;2023-05-29T00:55:20;15.10;99.90
27896;DHT22;15241;48.374;10.876;2023-05-29T01:00:21;15.00;99.90
27896;DHT22;15241;48.374;10.876;2023-05-29T01:05:20;15.00;99.90
27896;DHT22;15241;48.374;10.876;2023-05-29T01:10:19;15.00;99.90
27896;DHT22;15241;48.374;10.876;2023-05-29T01:15:24;15.00;99.90
27896;DHT22;15241;48.374;10.876;2023-05-29T01:20:27;15.00;99.90
27896;DHT22;15241;48.374;10.876;2023-05-29T01:25:34;15.00;99.90
27896;DHT22;15241;48.374;10.876;2023-05-29T01:30:33;14.90;99.90
27896;DHT22;15241;48.374;10.876;2023-05-29T01:35:33;14.90;99.90
27896;DHT22;15241;48.374;10.876;2023-05-29T01:40:31;14.80;99.90
27896;DHT22;15241;48.374;10.876;2023-05-29T01:45:31;14.90;99.90
27896;DHT22;15241;48.374;10.876;2023-05-29T01:50:30;14.80;99.90
27896;DHT22;15241;48.374;10.876;2023-05-29T01:55:29;14.80;99.90
27896;DHT22;15241;48.374;10.876;2023-05-29T02:00:28;14.70;99.90
27896;DHT22;15241;48.374;10.876;2023-05-29T02:05:27;14.70;99.90
27896;DHT22;15241;48.374;10.876;2023-05-29T02:10:26;14.60;99.90
27896;DHT22;15241;48.374;10.876;2023-05-29T02:15:25;14.60;99.90
27896;DHT22;15241;48.374;10.876;2023-05-29T02:20:24;14.50;99.90
27896;DHT22;15241;48.374;10.876;2023-05-29T02:25:23;14.40;99.90
27896;DHT22;15241;48.374;10.876;2023-05-29T02:30:22;14.30;99.90
27896;DHT22;15241;48.374;10.876;2023-05-29T02:35:21;14.20;99.90
27896;DHT22;15241;48.374;10.876;2023-05-29T02:40:20;14.20;99.90
27896;DHT22;15241;48.374;10.876;2023-05-29T02:45:19;14.10;99.90
27896;DHT22;15241;48.374;10.876;2023-05-29T02:50:18;14.10;99.90
27896;DHT22;15241;48.374;10.876;2023-05-29T02:55:17;14.00;99.90
27896;DHT22;15241;48.374;10.876;2023-05-29T03:00:18;13.90;99.90
27896;DHT22;15241;48.374;10.876;2023-05-29T03:05:17;13.90;99.90
27896;DHT22;15241;48.374;10.876;2023-05-29T03:10:18;13.90;99.90
27896;DHT22;15241;48.374;10.876;2023-05-29T03:15:18;13.80;99.90
27896;DHT22;15241;48.374;10.876;2023-05-29T03:20:17;13.70;99.90
27896;DHT22;15241;48.374;10.876;2023-05-29T03:25:18;13.60;99.90
27896;DHT22;15241;48.374;10.876;2023-05-29T03:30:18;13.60;99.90
27896;DHT22;15241;48.374;10.876;2023-05-29T03:35:16;13.60;99.90
27896;DHT22;15241;48.374;10.876;2023-05-29T03:40:15;13.60;99.90
27896;DHT22;15241;48.374;10.876;2023-05-29T03:45:14;13.60;99.90
27896;DHT22;15241;48.374;10.876;2023-05-29T03:50:14;13.60;99.90
27896;DHT22;15241;48.374;10.876;2023-05-29T03:55:13;13.50;99.90
27896;DHT22;15241;48.374;10.876;2023-05-29T04:05:19;13.60;99.90
27896;DHT22;15241;48.374;10.876;2023-05-29T04:10:18;13.60;99.90
27896;DHT22;15241;48.374;10.876;2023-05-29T04:15:17;13.70;99.90
27896;DHT22;15241;48.374;10.876;2023-05-29T04:20:16;13.70;99.90
27896;DHT22;15241;48.374;10.876;2023-05-29T04:25:15;13.70;99.90
27896;DHT22;15241;48.374;10.876;2023-05-29T04:30:15;13.90;99.90
27896;DHT22;15241;48.374;10.876;2023-05-29T04:35:14;14.00;99.90
27896;DHT22;15241;48.374;10.876;2023-05-29T04:40:14;14.10;99.90
27896;DHT22;15241;48.374;10.876;2023-05-29T04:45:13;14.20;99.90
27896;DHT22;15241;48.374;10.876;2023-05-29T04:50:13;14.40;99.90
27896;DHT22;15241;48.374;10.876;2023-05-29T05:00:21;14.60;99.90
27896;DHT22;15241;48.374;10.876;2023-05-29T05:05:20;14.80;99.90
27896;DHT22;15241;48.374;10.876;2023-05-29T05:10:19;15.00;99.90
27896;DHT22;15241;48.374;10.876;2023-05-29T05:15:18;15.10;99.90
27896;DHT22;15241;48.374;10.876;2023-05-29T05:20:17;15.30;99.90
27896;DHT22;15241;48.374;10.876;2023-05-29T05:25:16;15.50;99.90
27896;DHT22;15241;48.374;10.876;2023-05-29T05:30:16;15.60;99.90
27896;DHT22;15241;48.374;10.876;2023-05-29T05:35:15;15.80;99.90
27896;DHT22;15241;48.374;10.876;2023-05-29T05:40:14;16.00;99.90
27896;DHT22;15241;48.374;10.876;2023-05-29T05:45:13;16.00;99.90
27896;DHT22;15241;48.374;10.876;2023-05-29T05:50:12;16.20;99.90
27896;DHT22;15241;48.374;10.876;2023-05-29T05:55:12;16.40;99.90
27896;DHT22;15241;48.374;10.876;2023-05-29T06:00:13;16.60;99.90
27896;DHT22;15241;48.374;10.876;2023-05-29T06:10:21;16.90;99.90
27896;DHT22;15241;48.374;10.876;2023-05-29T06:15:20;17.10;99.90
27896;DHT22;15241;48.374;10.876;2023-05-29T06:20:19;17.20;99.90
27896;DHT22;15241;48.374;10.876;2023-05-29T06:25:20;17.50;99.90
27896;DHT22;15241;48.374;10.876;2023-05-29T06:30:19;17.50;99.90
27896;DHT22;15241;48.374;10.876;2023-05-29T06:35:18;17.60;99.90
27896;DHT22;15241;48.374;10.876;2023-05-29T06:40:17;17.70;99.90
27896;DHT22;15241;48.374;10.876;2023-05-29T06:45:16;17.90;99.90
27896;DHT22;15241;48.374;10.876;2023-05-29T06:50:15;18.10;99.90
27896;DHT22;15241;48.374;10.876;2023-05-29T06:55:14;18.20;99.90
27896;DHT22;15241;48.374;10.876;2023-05-29T07:00:15;18.40;99.90
27896;DHT22;15241;48.374;10.876;2023-05-29T07:05:15;18.50;99.90
27896;DHT22;15241;48.374;10.876;2023-05-29T07:10:15;18.80;99.90
27896;DHT22;15241;48.374;10.876;2023-05-29T07:15:14;18.90;99.90
27896;DHT22;15241;48.374;10.876;2023-05-29T07:20:13;19.10;99.70
27896;DHT22;15241;48.374;10.876;2023-05-29T07:25:12;19.20;99.60
27896;DHT22;15241;48.374;10.876;2023-05-29T07:30:13;19.40;99.30
27896;DHT22;15241;48.374;10.876;2023-05-29T07:35:12;19.50;99.20
27896;DHT22;15241;48.374;10.876;2023-05-29T07:40:11;19.70;98.90
27896;DHT22;15241;48.374;10.876;2023-05-29T07:45:10;19.80;98.70
27896;DHT22;15241;48.374;10.876;2023-05-29T07:50:11;20.00;98.60
27896;DHT22;15241;48.374;10.876;2023-05-29T07:55:10;20.10;98.80
27896;DHT22;15241;48.374;10.876;2023-05-29T08:00:11;20.30;99.00
27896;DHT22;15241;48.374;10.876;2023-05-29T08:05:10;20.50;98.90
27896;DHT22;15241;48.374;10.876;2023-05-29T08:10:10;20.70;99.80
27896;DHT22;15241;48.374;10.876;2023-05-29T08:15:10;20.80;98.80
27896;DHT22;15241;48.374;10.876;2023-05-29T08:20:11;20.80;98.60
27896;DHT22;15241;48.374;10.876;2023-05-29T08:25:10;21.10;99.00
27896;DHT22;15241;48.374;10.876;2023-05-29T08:30:12;21.30;98.80
27896;DHT22;15241;48.374;10.876;2023-05-29T08:35:11;21.50;98.70
27896;DHT22;15241;48.374;10.876;2023-05-29T08:40:11;21.70;97.90
27896;DHT22;15241;48.374;10.876;2023-05-29T08:45:13;21.80;98.00
27896;DHT22;15241;48.374;10.876;2023-05-29T08:50:12;22.10;96.30
27896;DHT22;15241;48.374;10.876;2023-05-29T09:00:20;22.30;96.20
27896;DHT22;15241;48.374;10.876;2023-05-29T09:05:19;22.50;95.40
27896;DHT22;15241;48.374;10.876;2023-05-29T09:10:18;22.80;95.70
27896;DHT22;15241;48.374;10.876;2023-05-29T09:15:19;23.00;95.00
27896;DHT22;15241;48.374;10.876;2023-05-29T09:20:19;23.30;95.00
27896;DHT22;15241;48.374;10.876;2023-05-29T09:25:18;23.50;93.60
27896;DHT22;15241;48.374;10.876;2023-05-29T09:30:33;23.70;93.00
27896;DHT22;15241;48.374;10.876;2023-05-29T09:35:36;23.90;92.20
27896;DHT22;15241;48.374;10.876;2023-05-29T09:40:36;24.10;92.70
27896;DHT22;15241;48.374;10.876;2023-05-29T09:45:39;24.30;92.30
27896;DHT22;15241;48.374;10.876;2023-05-29T09:50:38;24.40;91.80
27896;DHT22;15241;48.374;10.876;2023-05-29T09:55:37;24.80;92.20
27896;DHT22;15241;48.374;10.876;2023-05-29T10:00:36;25.10;91.30
27896;DHT22;15241;48.374;10.876;2023-05-29T10:05:35;25.30;90.20
27896;DHT22;15241;48.374;10.876;2023-05-29T10:10:37;25.50;88.80
27896;DHT22;15241;48.374;10.876;2023-05-29T10:15:36;25.80;89.90
27896;DHT22;15241;48.374;10.876;2023-05-29T10:20:36;26.10;90.10
27896;DHT22;15241;48.374;10.876;2023-05-29T10:25:36;26.20;88.90
27896;DHT22;15241;48.374;10.876;2023-05-29T10:30:39;26.40;87.50
27896;DHT22;15241;48.374;10.876;2023-05-29T10:35:44;26.70;85.00
27896;DHT22;15241;48.374;10.876;2023-05-29T10:40:43;27.00;86.90
27896;DHT22;15241;48.374;10.876;2023-05-29T10:45:51;27.00;80.10
27896;DHT22;15241;48.374;10.876;2023-05-29T10:50:50;27.30;80.80
27896;DHT22;15241;48.374;10.876;2023-05-29T10:55:51;27.60;80.00
27896;DHT22;15241;48.374;10.876;2023-05-29T11:00:51;27.70;79.80
27896;DHT22;15241;48.374;10.876;2023-05-29T11:06:00;27.90;80.10
27896;DHT22;15241;48.374;10.876;2023-05-29T11:11:00;28.00;79.80
27896;DHT22;15241;48.374;10.876;2023-05-29T11:16:12;28.30;78.70
27896;DHT22;15241;48.374;10.876;2023-05-29T11:21:30;28.50;80.20
27896;DHT22;15241;48.374;10.876;2023-05-29T11:26:30;28.90;79.50
27896;DHT22;15241;48.374;10.876;2023-05-29T11:31:32;29.10;76.80
27896;DHT22;15241;48.374;10.876;2023-05-29T11:36:32;29.20;75.10
27896;DHT22;15241;48.374;10.876;2023-05-29T11:41:31;29.50;72.40
27896;DHT22;15241;48.374;10.876;2023-05-29T11:46:30;29.60;71.40
27896;DHT22;15241;48.374;10.876;2023-05-29T11:51:29;29.80;75.00
27896;DHT22;15241;48.374;10.876;2023-05-29T11:56:29;30.20;72.10
27896;DHT22;15241;48.374;10.876;2023-05-29T12:01:28;30.00;69.20
27896;DHT22;15241;48.374;10.876;2023-05-29T12:06:33;30.20;68.90
27896;DHT22;15241;48.374;10.876;2023-05-29T12:11:33;29.90;69.10
27896;DHT22;15241;48.374;10.876;2023-05-29T12:16:34;30.00;69.00
27896;DHT22;15241;48.374;10.876;2023-05-29T12:21:33;30.10;67.70
27896;DHT22;15241;48.374;10.876;2023-05-29T12:26:32;30.50;71.20
27896;DHT22;15241;48.374;10.876;2023-05-29T12:31:31;30.70;68.20
27896;DHT22;15241;48.374;10.876;2023-05-29T12:36:30;30.70;68.00
27896;DHT22;15241;48.374;10.876;2023-05-29T12:41:33;31.00;67.20
27896;DHT22;15241;48.374;10.876;2023-05-29T12:46:37;31.10;67.70
27896;DHT22;15241;48.374;10.876;2023-05-29T12:56:48;31.50;67.00
27896;DHT22;15241;48.374;10.876;2023-05-29T13:01:47;31.50;65.20
27896;DHT22;15241;48.374;10.876;2023-05-29T13:06:45;31.80;65.00
27896;DHT22;15241;48.374;10.876;2023-05-29T13:11:44;31.30;64.50
27896;DHT22;15241;48.374;10.876;2023-05-29T13:16:44;31.40;66.00
27896;DHT22;15241;48.374;10.876;2023-05-29T13:21:42;31.50;65.20
27896;DHT22;15241;48.374;10.876;2023-05-29T13:26:41;31.80;64.70
27896;DHT22;15241;48.374;10.876;2023-05-29T13:31:40;31.70;65.60
27896;DHT22;15241;48.374;10.876;2023-05-29T13:36:39;32.00;65.60
27896;DHT22;15241;48.374;10.876;2023-05-29T13:41:38;31.80;62.90
27896;DHT22;15241;48.374;10.876;2023-05-29T13:46:38;32.10;62.70
27896;DHT22;15241;48.374;10.876;2023-05-29T13:51:37;32.20;63.10
27896;DHT22;15241;48.374;10.876;2023-05-29T13:56:36;32.30;61.70
27896;DHT22;15241;48.374;10.876;2023-05-29T14:01:35;32.40;60.50
27896;DHT22;15241;48.374;10.876;2023-05-29T14:06:33;32.40;62.20
27896;DHT22;15241;48.374;10.876;2023-05-29T14:11:32;32.20;60.90
27896;DHT22;15241;48.374;10.876;2023-05-29T14:16:31;32.30;61.40
27896;DHT22;15241;48.374;10.876;2023-05-29T14:21:30;32.30;61.70
27896;DHT22;15241;48.374;10.876;2023-05-29T14:26:29;32.30;61.10
27896;DHT22;15241;48.374;10.876;2023-05-29T14:31:28;32.50;60.60
27896;DHT22;15241;48.374;10.876;2023-05-29T14:36:27;32.40;60.10
27896;DHT22;15241;48.374;10.876;2023-05-29T14:41:26;32.50;60.80
27896;DHT22;15241;48.374;10.876;2023-05-29T14:46:27;32.50;59.10
27896;DHT22;15241;48.374;10.876;2023-05-29T14:51:26;32.30;59.10
27896;DHT22;15241;48.374;10.876;2023-05-29T14:56:25;32.30;59.80
27896;DHT22;15241;48.374;10.876;2023-05-29T15:01:24;32.20;58.00
27896;DHT22;15241;48.374;10.876;2023-05-29T15:06:23;32.40;59.50
27896;DHT22;15241;48.374;10.876;2023-05-29T15:11:22;32.30;58.80
27896;DHT22;15241;48.374;10.876;2023-05-29T15:16:21;32.20;58.10
27896;DHT22;15241;48.374;10.876;2023-05-29T15:21:20;32.00;57.90
27896;DHT22;15241;48.374;10.876;2023-05-29T15:26:19;31.80;57.30
27896;DHT22;15241;48.374;10.876;2023-05-29T15:31:18;31.90;59.00
27896;DHT22;15241;48.374;10.876;2023-05-29T15:36:17;31.80;58.30
27896;DHT22;15241;48.374;10.876;2023-05-29T15:41:15;32.00;58.10
27896;DHT22;15241;48.374;10.876;2023-05-29T15:46:15;31.80;58.10
27896;DHT22;15241;48.374;10.876;2023-05-29T15:51:14;31.70;57.90
27896;DHT22;15241;48.374;10.876;2023-05-29T15:56:13;31.40;56.40
27896;DHT22;15241;48.374;10.876;2023-05-29T16:01:12;31.10;57.10
27896;DHT22;15241;48.374;10.876;2023-05-29T16:06:11;31.10;57.40
27896;DHT22;15241;48.374;10.876;2023-05-29T16:16:18;30.80;57.10
27896;DHT22;15241;48.374;10.876;2023-05-29T16:21:17;30.40;56.30
27896;DHT22;15241;48.374;10.876;2023-05-29T16:26:16;30.20;57.70
27896;DHT22;15241;48.374;10.876;2023-05-29T16:31:15;30.20;56.20
27896;DHT22;15241;48.374;10.876;2023-05-29T16:36:14;30.10;57.60
27896;DHT22;15241;48.374;10.876;2023-05-29T16:41:13;29.80;55.50
27896;DHT22;15241;48.374;10.876;2023-05-29T16:46:12;29.50;55.50
27896;DHT22;15241;48.374;10.876;2023-05-29T16:51:11;29.20;55.90
27896;DHT22;15241;48.374;10.876;2023-05-29T16:56:10;29.20;56.20
27896;DHT22;15241;48.374;10.876;2023-05-29T17:01:09;28.90;55.70
27896;DHT22;15241;48.374;10.876;2023-05-29T17:06:08;28.90;54.80
27896;DHT22;15241;48.374;10.876;2023-05-29T17:11:07;28.60;55.50
27896;DHT22;15241;48.374;10.876;2023-05-29T17:16:06;28.30;55.30
27896;DHT22;15241;48.374;10.876;2023-05-29T17:21:05;28.20;56.00
27896;DHT22;15241;48.374;10.876;2023-05-29T17:26:04;28.00;56.30
27896;DHT22;15241;48.374;10.876;2023-05-29T17:31:03;27.80;56.90
27896;DHT22;15241;48.374;10.876;2023-05-29T17:36:03;27.60;56.80
27896;DHT22;15241;48.374;10.876;2023-05-29T17:41:02;27.40;58.20
27896;DHT22;15241;48.374;10.876;2023-05-29T17:46:01;27.20;59.40
27896;DHT22;15241;48.374;10.876;2023-05-29T17:51:00;27.00;59.20
27896;DHT22;15241;48.374;10.876;2023-05-29T17:56:00;26.70;59.50
27896;DHT22;15241;48.374;10.876;2023-05-29T18:00:59;26.50;60.30
27896;DHT22;15241;48.374;10.876;2023-05-29T18:05:59;26.30;62.30
27896;DHT22;15241;48.374;10.876;2023-05-29T18:10:58;26.00;61.90
27896;DHT22;15241;48.374;10.876;2023-05-29T18:15:57;25.90;62.60
27896;DHT22;15241;48.374;10.876;2023-05-29T18:26:03;25.60;64.20
27896;DHT22;15241;48.374;10.876;2023-05-29T18:31:02;25.20;64.20
27896;DHT22;15241;48.374;10.876;2023-05-29T18:36:01;25.10;64.90
27896;DHT22;15241;48.374;10.876;2023-05-29T18:41:00;24.90;65.10
27896;DHT22;15241;48.374;10.876;2023-05-29T18:45:59;24.70;65.80
27896;DHT22;15241;48.374;10.876;2023-05-29T18:51:00;24.60;65.60
27896;DHT22;15241;48.374;10.876;2023-05-29T18:55:59;24.40;67.20
27896;DHT22;15241;48.374;10.876;2023-05-29T19:00:58;24.30;68.50
27896;DHT22;15241;48.374;10.876;2023-05-29T19:05:57;24.10;69.00
27896;DHT22;15241;48.374;10.876;2023-05-29T19:10:56;23.90;69.90
27896;DHT22;15241;48.374;10.876;2023-05-29T19:15:55;23.70;71.00
27896;DHT22;15241;48.374;10.876;2023-05-29T19:20:53;23.50;70.20
27896;DHT22;15241;48.374;10.876;2023-05-29T19:25:52;23.30;69.60
27896;DHT22;15241;48.374;10.876;2023-05-29T19:30:51;23.10;71.20
27896;DHT22;15241;48.374;10.876;2023-05-29T19:35:50;23.00;72.30
27896;DHT22;15241;48.374;10.876;2023-05-29T19:40:49;22.80;71.60
27896;DHT22;15241;48.374;10.876;2023-05-29T19:45:48;22.60;73.40
27896;DHT22;15241;48.374;10.876;2023-05-29T19:50:47;22.40;74.20
27896;DHT22;15241;48.374;10.876;2023-05-29T19:55:46;22.20;75.70
27896;DHT22;15241;48.374;10.876;2023-05-29T20:00:45;22.00;76.50
27896;DHT22;15241;48.374;10.876;2023-05-29T20:05:44;21.80;76.60
27896;DHT22;15241;48.374;10.876;2023-05-29T20:10:43;21.60;77.10
27896;DHT22;15241;48.374;10.876;2023-05-29T20:15:42;21.50;78.80
27896;DHT22;15241;48.374;10.876;2023-05-29T20:20:41;21.30;78.80
27896;DHT22;15241;48.374;10.876;2023-05-29T20:25:40;21.10;80.60
27896;DHT22;15241;48.374;10.876;2023-05-29T20:30:39;20.90;82.30
27896;DHT22;15241;48.374;10.876;2023-05-29T20:35:38;20.80;82.50
27896;DHT22;15241;48.374;10.876;2023-05-29T20:40:36;20.60;82.70
27896;DHT22;15241;48.374;10.876;2023-05-29T20:45:35;20.50;84.00
27896;DHT22;15241;48.374;10.876;2023-05-29T20:55:40;20.20;84.90
27896;DHT22;15241;48.374;10.876;2023-05-29T21:00:39;20.00;85.70
27896;DHT22;15241;48.374;10.876;2023-05-29T21:05:57;19.90;86.20
27896;DHT22;15241;48.374;10.876;2023-05-29T21:10:56;19.80;86.60
27896;DHT22;15241;48.374;10.876;2023-05-29T21:15:55;19.60;87.70
27896;DHT22;15241;48.374;10.876;2023-05-29T21:20:54;19.50;89.10
27896;DHT22;15241;48.374;10.876;2023-05-29T21:25:53;19.40;89.30
27896;DHT22;15241;48.374;10.876;2023-05-29T21:30:52;19.30;89.90
27896;DHT22;15241;48.374;10.876;2023-05-29T21:35:51;19.20;90.20
27896;DHT22;15241;48.374;10.876;2023-05-29T21:40:50;19.10;90.20
27896;DHT22;15241;48.374;10.876;2023-05-29T21:45:49;18.90;90.70
27896;DHT22;15241;48.374;10.876;2023-05-29T21:50:48;18.80;90.60
27896;DHT22;15241;48.374;10.876;2023-05-29T21:55:47;18.70;90.60
27896;DHT22;15241;48.374;10.876;2023-05-29T22:00:46;18.70;90.80
27896;DHT22;15241;48.374;10.876;2023-05-29T22:05:45;18.70;91.10
27896;DHT22;15241;48.374;10.876;2023-05-29T22:10:44;18.60;91.20
27896;DHT22;15241;48.374;10.876;2023-05-29T22:15:43;18.60;90.80
27896;DHT22;15241;48.374;10.876;2023-05-29T22:20:42;18.50;90.40
27896;DHT22;15241;48.374;10.876;2023-05-29T22:25:41;18.60;89.00
27896;DHT22;15241;48.374;10.876;2023-05-29T22:30:40;18.60;88.80
27896;DHT22;15241;48.374;10.876;2023-05-29T22:35:39;18.60;86.10
27896;DHT22;15241;48.374;10.876;2023-05-29T22:40:38;18.50;86.70
27896;DHT22;15241;48.374;10.876;2023-05-29T22:45:37;18.50;87.40
27896;DHT22;15241;48.374;10.876;2023-05-29T22:50:35;18.40;87.40
27896;DHT22;15241;48.374;10.876;2023-05-29T22:55:34;18.40;87.10
27896;DHT22;15241;48.374;10.876;2023-05-29T23:00:33;18.30;87.00
27896;DHT22;15241;48.374;10.876;2023-05-29T23:05:32;18.30;88.00
27896;DHT22;15241;48.374;10.876;2023-05-29T23:10:32;18.20;88.20
27896;DHT22;15241;48.374;10.876;2023-05-29T23:15:31;18.10;88.20
27896;DHT22;15241;48.374;10.876;2023-05-29T23:20:30;18.10;87.90
27896;DHT22;15241;48.374;10.876;2023-05-29T23:25:29;18.00;88.00
27896;DHT22;15241;48.374;10.876;2023-05-29T23:30:28;18.00;87.90
27896;DHT22;15241;48.374;10.876;2023-05-29T23:35:27;17.90;88.40
27896;DHT22;15241;48.374;10.876;2023-05-29T23:40:26;17.80;88.90
27896;DHT22;15241;48.374;10.876;2023-05-29T23:45:25;17.80;89.40
27896;DHT22;15241;48.374;10.876;2023-05-29T23:50:24;17.70;89.90
27896;DHT22;15241;48.374;10.876;2023-05-29T23:55:23;17.60;90.10
